createdAt,value
2023-02-11T00:01:19.424Z,100110.25
2023-02-11T00:03:46.082Z,100109.41
2023-02-11T00:06:12.745Z,100109.41
2023-02-11T00:08:39.808Z,100104.44
2023-02-11T00:11:06.679Z,100101.00
2023-02-11T00:13:35.694Z,100105.63
2023-02-11T00:16:08.222Z,100110.13
2023-02-11T00:18:36.490Z,100094.56
2023-02-11T00:21:08.675Z,100089.69
2023-02-11T00:23:42.426Z,100094.06
2023-02-11T00:26:23.075Z,100080.72
2023-02-11T00:28:51.458Z,100069.72
2023-02-11T00:31:19.598Z,100054.53
2023-02-11T00:33:46.777Z,100044.09
2023-02-11T00:36:19.351Z,100045.25
2023-02-11T00:38:47.826Z,100044.44
2023-02-11T00:41:15.464Z,100033.97
2023-02-11T00:43:42.136Z,100030.06
2023-02-11T00:46:11.892Z,100015.44
2023-02-11T00:48:38.695Z,100014.28
2023-02-11T00:51:05.830Z,100004.00
2023-02-11T00:53:33.138Z,100005.97
2023-02-11T00:56:01.066Z,100002.91
2023-02-11T00:58:30.046Z,100004.38
2023-02-11T01:00:56.828Z,100019.84
2023-02-11T01:03:24.018Z,100022.56
2023-02-11T01:05:51.484Z,100021.09
2023-02-11T01:08:18.325Z,100023.81
2023-02-11T01:10:53.341Z,100023.88
2023-02-11T01:13:20.006Z,100029.16
2023-02-11T01:15:46.688Z,100018.78
2023-02-11T01:18:13.256Z,100016.22
2023-02-11T01:20:39.753Z,100016.97
2023-02-11T01:23:06.344Z,100008.56
2023-02-11T01:25:32.917Z,100014.13
2023-02-11T01:27:59.493Z,100011.25
2023-02-11T01:30:33.445Z,100010.69
2023-02-11T01:33:00.025Z,100022.00
2023-02-11T01:35:29.558Z,100004.25
2023-02-11T01:37:56.193Z,100003.56
2023-02-11T01:40:22.792Z,100009.09
2023-02-11T01:42:51.100Z,100009.66
2023-02-11T01:45:47.037Z,100005.69
2023-02-11T01:48:22.415Z,100018.59
2023-02-11T01:50:52.777Z,100017.47
2023-02-11T01:53:38.096Z,100019.53
2023-02-11T01:56:24.562Z,100022.16
2023-02-11T01:58:53.389Z,100010.75
2023-02-11T02:01:25.702Z,100011.00
2023-02-11T02:03:56.483Z,100002.44
2023-02-11T02:06:29.575Z,99988.56
2023-02-11T02:09:03.369Z,99984.03
2023-02-11T02:11:29.976Z,99969.94
2023-02-11T02:13:56.619Z,99968.50
2023-02-11T02:16:29.910Z,99946.97
2023-02-11T02:19:19.535Z,99951.25
2023-02-11T02:22:22.080Z,99955.28
2023-02-11T02:25:10.575Z,99951.16
2023-02-11T02:27:57.904Z,99956.28
2023-02-11T02:30:36.169Z,99936.59
2023-02-11T02:33:22.420Z,99931.38
2023-02-11T02:35:56.410Z,99899.00
2023-02-11T02:38:31.457Z,99907.78
2023-02-11T02:41:11.218Z,99905.72
2023-02-11T02:43:45.160Z,99904.22
2023-02-11T02:46:14.363Z,99904.28
2023-02-11T02:48:43.643Z,99916.25
2023-02-11T02:51:31.525Z,99930.03
2023-02-11T02:54:16.310Z,99915.31
2023-02-11T02:56:52.770Z,99911.22
2023-02-11T02:59:58.074Z,99900.75
2023-02-11T03:02:39.732Z,99904.28
2023-02-11T03:05:12.837Z,99909.34
2023-02-11T03:07:50.977Z,99923.81
2023-02-11T03:10:25.135Z,99928.31
2023-02-11T03:12:53.699Z,99921.88
2023-02-11T03:15:23.258Z,99926.84
2023-02-11T03:17:53.169Z,99907.78
2023-02-11T03:20:25.294Z,99902.59
2023-02-11T03:23:29.470Z,99873.50
2023-02-11T03:26:02.749Z,99861.91
2023-02-11T03:28:53.469Z,99857.56
2023-02-11T03:31:47.779Z,99848.84
2023-02-11T03:34:33.517Z,99842.91
2023-02-11T03:37:06.575Z,99854.09
2023-02-11T03:39:40.856Z,99864.63
2023-02-11T03:42:10.944Z,99864.84
2023-02-11T03:44:46.519Z,99853.09
2023-02-11T03:47:15.563Z,99857.34
2023-02-11T03:49:45.093Z,99854.66
2023-02-11T03:52:13.048Z,99865.06
2023-02-11T03:54:42.808Z,99871.13
2023-02-11T03:57:09.329Z,99867.06
2023-02-11T03:59:53.902Z,99859.16
2023-02-11T04:02:25.156Z,99864.41
2023-02-11T04:04:51.857Z,99859.28
2023-02-11T04:07:18.566Z,99858.28
2023-02-11T04:09:45.070Z,99862.50
2023-02-11T04:12:11.946Z,99852.91
2023-02-11T04:14:38.659Z,99847.88
2023-02-11T04:17:05.627Z,99843.50
2023-02-11T04:19:32.221Z,99830.56
2023-02-11T04:21:58.990Z,99850.50
2023-02-11T04:24:29.199Z,99858.16
2023-02-11T04:26:55.842Z,99849.50
2023-02-11T04:29:22.605Z,99842.56
2023-02-11T04:31:49.416Z,99852.25
2023-02-11T04:34:17.692Z,99858.28
2023-02-11T04:36:44.383Z,99858.34
2023-02-11T04:39:11.009Z,99863.59
2023-02-11T04:41:37.642Z,99869.56
2023-02-11T04:44:06.828Z,99871.97
2023-02-11T04:46:33.382Z,99871.97
2023-02-11T04:49:07.494Z,99879.94
2023-02-11T04:51:34.005Z,99887.41
2023-02-11T04:54:00.564Z,99885.81
2023-02-11T04:56:29.085Z,99898.13
2023-02-11T04:58:55.685Z,99890.22
2023-02-11T05:01:22.371Z,99893.22
2023-02-11T05:03:49.490Z,99895.78
2023-02-11T05:06:18.050Z,99900.03
2023-02-11T05:08:44.582Z,99898.19
2023-02-11T05:11:19.796Z,99899.03
2023-02-11T05:13:46.790Z,99916.38
2023-02-11T05:16:13.982Z,99912.13
2023-02-11T05:18:42.708Z,99905.22
2023-02-11T05:21:11.176Z,99909.44
2023-02-11T05:23:39.265Z,99915.50
2023-02-11T05:26:06.728Z,99905.03
2023-02-11T05:28:33.552Z,99908.78
2023-02-11T05:31:00.160Z,99901.00
2023-02-11T05:33:26.736Z,99913.63
2023-02-11T05:35:58.654Z,99909.63
2023-02-11T05:38:25.842Z,99902.75
2023-02-11T05:40:52.382Z,99900.03
2023-02-11T05:43:18.944Z,99903.47
2023-02-11T05:45:45.502Z,99907.00
2023-02-11T05:48:12.054Z,99910.56
2023-02-11T05:50:38.945Z,99915.56
2023-02-11T05:53:05.904Z,99912.22
2023-02-11T05:55:35.052Z,99907.81
2023-02-11T05:58:01.937Z,99907.59
2023-02-11T06:00:28.511Z,99911.13
2023-02-11T06:02:55.309Z,99911.94
2023-02-11T06:05:22.089Z,99902.28
2023-02-11T06:07:48.566Z,99903.13
2023-02-11T06:10:15.146Z,99901.31
2023-02-11T06:12:41.808Z,99900.25
2023-02-11T06:15:08.750Z,99901.19
2023-02-11T06:17:36.722Z,99893.44
2023-02-11T06:20:05.904Z,99892.78
2023-02-11T06:22:32.836Z,99885.72
2023-02-11T06:25:01.978Z,99900.66
2023-02-11T06:27:29.528Z,99898.88
2023-02-11T06:29:56.144Z,99899.56
2023-02-11T06:32:42.660Z,99903.06
2023-02-11T06:35:11.761Z,99910.44
2023-02-11T06:37:39.056Z,99922.63
2023-02-11T06:40:06.279Z,99912.75
2023-02-11T06:42:37.169Z,99933.50
2023-02-11T06:45:06.179Z,99926.78
2023-02-11T06:47:32.895Z,99924.22
2023-02-11T06:49:59.460Z,99920.59
2023-02-11T06:52:26.171Z,99921.38
2023-02-11T06:55:00.174Z,99910.44
2023-02-11T06:57:44.446Z,99911.16
2023-02-11T07:00:14.399Z,99919.00
2023-02-11T07:02:40.933Z,99925.25
2023-02-11T07:05:07.986Z,99925.16
2023-02-11T07:07:34.577Z,99933.38
2023-02-11T07:10:03.090Z,99932.44
2023-02-11T07:12:30.643Z,99931.56
2023-02-11T07:14:57.197Z,99925.53
2023-02-11T07:17:23.806Z,99923.63
2023-02-11T07:19:51.366Z,99917.56
2023-02-11T07:22:17.888Z,99924.84
2023-02-11T07:24:44.624Z,99922.09
2023-02-11T07:27:11.160Z,99927.09
2023-02-11T07:29:37.701Z,99934.91
2023-02-11T07:32:14.895Z,99924.00
2023-02-11T07:34:41.459Z,99923.16
2023-02-11T07:37:07.950Z,99925.72
2023-02-11T07:39:34.459Z,99912.91
2023-02-11T07:42:00.968Z,99913.44
2023-02-11T07:44:27.460Z,99919.59
2023-02-11T07:46:54.014Z,99931.88
2023-02-11T07:49:23.121Z,99931.88
2023-02-11T07:51:51.298Z,99939.59
2023-02-11T07:54:18.105Z,99930.88
2023-02-11T07:56:44.756Z,99946.66
2023-02-11T07:59:12.095Z,99945.72
2023-02-11T08:01:38.689Z,99947.41
2023-02-11T08:04:05.432Z,99934.66
2023-02-11T08:06:43.318Z,99930.19
2023-02-11T08:09:16.114Z,99916.34
2023-02-11T08:11:43.103Z,99923.25
2023-02-11T08:14:10.120Z,99904.94
2023-02-11T08:16:39.191Z,99913.91
2023-02-11T08:19:11.022Z,99913.06
2023-02-11T08:21:40.367Z,99911.56
2023-02-11T08:24:07.489Z,99914.25
2023-02-11T08:26:35.010Z,99912.50
2023-02-11T08:29:05.651Z,99918.38
2023-02-11T08:31:38.041Z,99910.69
2023-02-11T08:34:04.998Z,99910.09
2023-02-11T08:36:37.236Z,99921.72
2023-02-11T08:39:22.478Z,99920.66
2023-02-11T08:41:52.232Z,99930.75
2023-02-11T08:44:20.067Z,99930.03
2023-02-11T08:46:47.516Z,99947.28
2023-02-11T08:49:14.500Z,99938.63
2023-02-11T08:51:41.202Z,99944.78
2023-02-11T08:54:12.199Z,99934.38
2023-02-11T08:56:39.418Z,99926.59
2023-02-11T08:59:07.182Z,99928.31
2023-02-11T09:01:33.819Z,99928.44
2023-02-11T09:04:01.140Z,99922.59
2023-02-11T09:06:28.230Z,99918.19
2023-02-11T09:08:56.790Z,99900.03
2023-02-11T09:11:31.030Z,99907.22
2023-02-11T09:13:59.728Z,99921.31
2023-02-11T09:16:30.007Z,99902.06
2023-02-11T09:18:58.644Z,99902.38
2023-02-11T09:21:25.836Z,99912.88
2023-02-11T09:23:52.513Z,99906.19
2023-02-11T09:26:22.574Z,99921.84
2023-02-11T09:28:50.084Z,99912.56
2023-02-11T09:31:19.929Z,99918.09
2023-02-11T09:33:49.559Z,99919.66
2023-02-11T09:36:28.918Z,99919.16
2023-02-11T09:38:57.725Z,99928.19
2023-02-11T09:41:27.124Z,99932.81
2023-02-11T09:43:57.578Z,99934.06
2023-02-11T09:46:26.154Z,99937.63
2023-02-11T09:48:55.897Z,99942.72
2023-02-11T09:51:53.554Z,99939.09
2023-02-11T09:54:30.351Z,99937.97
2023-02-11T09:56:56.907Z,99943.88
2023-02-11T09:59:24.672Z,99956.09
2023-02-11T10:01:58.842Z,99956.84
2023-02-11T10:04:48.511Z,99963.25
2023-02-11T10:07:39.954Z,99962.75
2023-02-11T10:10:12.266Z,99948.84
2023-02-11T10:12:55.552Z,99967.47
2023-02-11T10:15:37.240Z,99953.91
2023-02-11T10:18:11.894Z,99954.88
2023-02-11T10:20:46.138Z,99952.59
2023-02-11T10:23:20.778Z,99946.34
2023-02-11T10:25:52.873Z,99945.28
2023-02-11T10:28:29.955Z,99956.56
2023-02-11T10:31:01.077Z,99950.88
2023-02-11T10:33:51.579Z,99957.84
2023-02-11T10:36:20.831Z,99958.19
2023-02-11T10:38:47.347Z,99964.38
2023-02-11T10:41:20.612Z,99965.97
2023-02-11T10:43:47.090Z,99974.84
2023-02-11T10:46:19.501Z,99975.72
2023-02-11T10:48:51.787Z,99970.22
2023-02-11T10:51:25.121Z,99955.56
2023-02-11T10:54:04.012Z,99958.16
2023-02-11T10:56:40.030Z,99956.16
2023-02-11T10:59:33.085Z,99972.81
2023-02-11T11:02:18.457Z,99970.38
2023-02-11T11:04:45.827Z,99965.84
2023-02-11T11:07:24.875Z,99959.66
2023-02-11T11:09:59.651Z,99949.34
2023-02-11T11:12:48.775Z,99945.53
2023-02-11T11:15:25.819Z,99936.72
2023-02-11T11:18:20.973Z,99940.13
2023-02-11T11:21:00.941Z,99950.41
2023-02-11T11:23:29.876Z,99950.50
2023-02-11T11:26:08.399Z,99957.69
2023-02-11T11:28:53.271Z,99957.84
2023-02-11T11:32:05.844Z,99949.09
2023-02-11T11:34:34.035Z,99953.56
2023-02-11T11:37:10.330Z,99955.44
2023-02-11T11:39:37.145Z,99968.50
2023-02-11T11:42:06.177Z,99969.34
2023-02-11T11:44:37.435Z,99944.19
2023-02-11T11:47:16.157Z,99936.34
2023-02-11T11:50:10.117Z,99933.66
2023-02-11T11:53:04.647Z,99934.41
2023-02-11T11:55:38.212Z,99930.91
2023-02-11T11:58:06.900Z,99942.16
2023-02-11T12:01:00.828Z,99948.22
2023-02-11T12:04:02.520Z,99960.63
2023-02-11T12:07:06.689Z,99951.19
2023-02-11T12:09:49.365Z,99953.00
2023-02-11T12:12:32.745Z,99953.03
2023-02-11T12:15:23.919Z,99963.41
2023-02-11T12:17:56.435Z,99964.09
2023-02-11T12:20:34.683Z,99949.97
2023-02-11T12:23:25.954Z,99951.75
2023-02-11T12:26:08.266Z,99950.00
2023-02-11T12:29:01.432Z,99950.84
2023-02-11T12:31:39.114Z,99948.25
2023-02-11T12:34:23.841Z,99955.22
2023-02-11T12:37:21.378Z,99943.72
2023-02-11T12:39:47.750Z,99948.09
2023-02-11T12:42:57.834Z,99948.09
2023-02-11T12:45:35.888Z,99957.50
2023-02-11T12:48:22.894Z,99960.19
2023-02-11T12:51:15.057Z,99953.22
2023-02-11T12:54:06.932Z,99954.00
2023-02-11T12:56:44.616Z,99941.63
2023-02-11T12:59:44.097Z,99936.47
2023-02-11T13:02:21.344Z,99933.84
2023-02-11T13:04:56.996Z,99933.72
2023-02-11T13:07:33.297Z,99931.91
2023-02-11T13:10:31.654Z,99922.41
2023-02-11T13:13:18.591Z,99906.75
2023-02-11T13:15:57.380Z,99918.16
2023-02-11T13:18:44.983Z,99910.31
2023-02-11T13:21:14.527Z,99919.13
2023-02-11T13:24:08.392Z,99920.00
2023-02-11T13:26:39.503Z,99926.88
2023-02-11T13:29:23.764Z,99920.00
2023-02-11T13:32:06.108Z,99921.72
2023-02-11T13:34:41.858Z,99929.50
2023-02-11T13:37:20.716Z,99933.06
2023-02-11T13:40:07.568Z,99945.16
2023-02-11T13:42:49.961Z,99947.78
2023-02-11T13:45:33.772Z,99941.59
2023-02-11T13:48:05.556Z,99939.75
2023-02-11T13:50:39.655Z,99931.84
2023-02-11T13:53:08.809Z,99933.56
2023-02-11T13:55:35.763Z,99939.66
2023-02-11T13:58:10.789Z,99944.00
2023-02-11T14:00:37.206Z,99943.91
2023-02-11T14:03:31.439Z,99949.13
2023-02-11T14:06:28.869Z,99945.66
2023-02-11T14:09:21.511Z,99957.75
2023-02-11T14:11:52.705Z,99944.59
2023-02-11T14:14:24.034Z,99953.31
2023-02-11T14:16:59.810Z,99948.00
2023-02-11T14:19:40.775Z,99958.59
2023-02-11T14:22:27.654Z,99957.66
2023-02-11T14:24:57.544Z,99961.19
2023-02-11T14:27:48.963Z,99962.75
2023-02-11T14:30:54.210Z,99955.72
2023-02-11T14:33:39.546Z,99965.38
2023-02-11T14:36:17.896Z,99962.91
2023-02-11T14:38:52.928Z,99969.88
2023-02-11T14:41:29.406Z,99969.09
2023-02-11T14:43:59.811Z,99961.03
2023-02-11T14:46:30.743Z,99962.69
2023-02-11T14:49:01.254Z,99953.41
2023-02-11T14:51:38.523Z,99966.47
2023-02-11T14:54:15.321Z,99970.75
2023-02-11T14:56:42.404Z,99973.22
2023-02-11T14:59:25.561Z,99970.50
2023-02-11T15:01:56.566Z,99985.44
2023-02-11T15:04:26.054Z,99976.63
2023-02-11T15:06:53.852Z,99980.00
2023-02-11T15:09:45.416Z,99981.69
2023-02-11T15:12:19.974Z,99983.47
2023-02-11T15:14:55.319Z,99979.03
2023-02-11T15:17:27.689Z,99988.56
2023-02-11T15:19:57.363Z,99996.41
2023-02-11T15:22:29.277Z,99998.91
2023-02-11T15:25:10.610Z,100006.75
2023-02-11T15:27:46.385Z,100020.75
2023-02-11T15:30:22.040Z,100019.09
2023-02-11T15:32:58.737Z,100006.84
2023-02-11T15:35:36.678Z,100014.53
2023-02-11T15:38:04.544Z,100018.66
2023-02-11T15:40:33.990Z,100017.88
2023-02-11T15:43:08.481Z,100020.50
2023-02-11T15:45:54.171Z,100010.09
2023-02-11T15:48:35.600Z,100004.63
2023-02-11T15:51:11.755Z,100005.44
2023-02-11T15:53:42.405Z,100015.13
2023-02-11T15:56:25.461Z,100003.84
2023-02-11T15:58:55.885Z,100004.63
2023-02-11T16:01:33.617Z,100006.13
2023-02-11T16:04:01.359Z,100015.63
2023-02-11T16:06:42.833Z,100003.53
2023-02-11T16:09:10.140Z,99992.00
2023-02-11T16:11:45.850Z,100001.53
2023-02-11T16:14:27.493Z,100021.63
2023-02-11T16:16:57.870Z,100017.22
2023-02-11T16:19:26.969Z,100016.31
2023-02-11T16:22:03.098Z,100014.56
2023-02-11T16:24:35.203Z,100005.06
2023-02-11T16:27:08.142Z,100003.31
2023-02-11T16:29:44.241Z,100012.97
2023-02-11T16:32:16.091Z,100026.00
2023-02-11T16:34:44.502Z,100033.06
2023-02-11T16:37:11.058Z,100034.72
2023-02-11T16:39:37.606Z,100038.88
2023-02-11T16:42:07.090Z,100040.69
2023-02-11T16:44:42.314Z,100033.94
2023-02-11T16:47:23.467Z,100035.53
2023-02-11T16:49:50.184Z,100040.88
2023-02-11T16:52:20.577Z,100042.50
2023-02-11T16:54:47.439Z,100045.06
2023-02-11T16:57:19.672Z,100035.50
2023-02-11T16:59:46.922Z,100040.72
2023-02-11T17:02:26.325Z,100048.34
2023-02-11T17:04:54.634Z,100037.81
2023-02-11T17:07:21.719Z,100054.53
2023-02-11T17:09:48.288Z,100060.31
2023-02-11T17:12:14.723Z,100059.59
2023-02-11T17:14:48.756Z,100059.59
2023-02-11T17:17:16.192Z,100070.75
2023-02-11T17:19:42.654Z,100066.38
2023-02-11T17:22:11.244Z,100075.97
2023-02-11T17:24:37.730Z,100066.53
2023-02-11T17:27:09.084Z,100080.25
2023-02-11T17:29:35.566Z,100077.69
2023-02-11T17:32:01.984Z,100081.31
2023-02-11T17:34:29.261Z,100083.88
2023-02-11T17:36:56.007Z,100089.03
2023-02-11T17:39:22.420Z,100089.69
2023-02-11T17:41:48.907Z,100101.13
2023-02-11T17:44:16.737Z,100103.56
2023-02-11T17:46:43.514Z,100098.50
2023-02-11T17:49:13.197Z,100108.00
2023-02-11T17:51:40.133Z,100101.03
2023-02-11T17:54:10.742Z,100095.91
2023-02-11T17:56:38.493Z,100101.00
2023-02-11T17:59:06.804Z,100106.22
2023-02-11T18:01:37.165Z,100096.63
2023-02-11T18:04:04.563Z,100101.03
2023-02-11T18:06:33.731Z,100104.31
2023-02-11T18:09:02.519Z,100110.59
2023-02-11T18:11:30.490Z,100108.81
2023-02-11T18:13:59.804Z,100109.81
2023-02-11T18:16:28.785Z,100105.28
2023-02-11T18:18:59.669Z,100113.81
2023-02-11T18:21:26.528Z,100119.13
2023-02-11T18:23:53.698Z,100123.47
2023-02-11T18:26:21.928Z,100121.66
2023-02-11T18:28:48.635Z,100118.97
2023-02-11T18:31:15.305Z,100112.09
2023-02-11T18:33:42.481Z,100111.16
2023-02-11T18:36:12.835Z,100119.00
2023-02-11T18:38:40.257Z,100110.38
2023-02-11T18:41:07.514Z,100117.28
2023-02-11T18:43:37.205Z,100127.69
2023-02-11T18:46:09.533Z,100129.38
2023-02-11T18:48:36.495Z,100131.78
2023-02-11T18:51:09.817Z,100138.06
2023-02-11T18:53:36.471Z,100155.56
2023-02-11T18:56:08.115Z,100166.84
2023-02-11T18:58:34.665Z,100175.53
2023-02-11T19:01:24.404Z,100176.31
2023-02-11T19:03:51.507Z,100160.09
2023-02-11T19:06:27.586Z,100161.81
2023-02-11T19:08:59.021Z,100163.50
2023-02-11T19:11:44.825Z,100162.41
2023-02-11T19:14:11.477Z,100173.84
2023-02-11T19:16:39.983Z,100168.72
2023-02-11T19:19:07.515Z,100165.00
2023-02-11T19:21:34.476Z,100166.84
2023-02-11T19:24:02.278Z,100169.31
2023-02-11T19:26:29.779Z,100166.72
2023-02-11T19:28:58.096Z,100167.56
2023-02-11T19:31:24.685Z,100159.03
2023-02-11T19:33:51.744Z,100164.34
2023-02-11T19:36:18.650Z,100168.56
2023-02-11T19:38:45.336Z,100172.75
2023-02-11T19:41:22.190Z,100183.97
2023-02-11T19:43:52.932Z,100187.53
2023-02-11T19:46:23.269Z,100186.72
2023-02-11T19:48:59.464Z,100173.63
2023-02-11T19:51:26.044Z,100180.09
2023-02-11T19:53:52.588Z,100181.56
2023-02-11T19:56:20.811Z,100188.44
2023-02-11T19:58:47.746Z,100187.53
2023-02-11T20:01:19.710Z,100183.75
2023-02-11T20:03:50.152Z,100197.84
2023-02-11T20:06:20.374Z,100192.66
2023-02-11T20:08:46.858Z,100202.13
2023-02-11T20:11:23.174Z,100205.59
2023-02-11T20:13:49.809Z,100205.69
2023-02-11T20:16:19.593Z,100208.19
2023-02-11T20:18:49.140Z,100196.06
2023-02-11T20:21:21.363Z,100191.00
2023-02-11T20:23:50.017Z,100187.66
2023-02-11T20:26:32.316Z,100188.97
2023-02-11T20:29:02.177Z,100194.34
2023-02-11T20:31:32.943Z,100187.53
2023-02-11T20:34:00.955Z,100188.41
2023-02-11T20:36:32.031Z,100190.88
2023-02-11T20:39:02.333Z,100192.59
2023-02-11T20:41:32.678Z,100187.53
2023-02-11T20:44:01.717Z,100191.81
2023-02-11T20:46:30.537Z,100196.22
2023-02-11T20:48:57.646Z,100191.03
2023-02-11T20:51:27.273Z,100192.81
2023-02-11T20:54:17.747Z,100195.34
2023-02-11T20:56:47.830Z,100209.31
2023-02-11T20:59:17.568Z,100213.53
2023-02-11T21:01:46.589Z,100215.22
2023-02-11T21:04:19.389Z,100219.69
2023-02-11T21:06:52.206Z,100214.38
2023-02-11T21:09:21.800Z,100205.69
2023-02-11T21:11:51.563Z,100219.75
2023-02-11T21:14:19.126Z,100218.97
2023-02-11T21:16:47.227Z,100217.13
2023-02-11T21:19:23.428Z,100217.09
2023-02-11T21:21:50.653Z,100217.00
2023-02-11T21:24:17.578Z,100225.72
2023-02-11T21:26:44.062Z,100224.00
2023-02-11T21:29:10.737Z,100230.22
2023-02-11T21:31:42.241Z,100234.56
2023-02-11T21:34:10.468Z,100236.25
2023-02-11T21:36:37.012Z,100237.94
2023-02-11T21:39:41.528Z,100233.38
2023-02-11T21:42:08.023Z,100247.31
2023-02-11T21:44:52.073Z,100242.94
2023-02-11T21:47:18.675Z,100233.47
2023-02-11T21:49:45.929Z,100246.47
2023-02-11T21:52:12.539Z,100241.25
2023-02-11T21:54:53.396Z,100247.34
2023-02-11T22:00:13.926Z,100246.31
2023-02-11T22:02:40.538Z,100253.47
2023-02-11T22:05:07.040Z,100256.22
2023-02-11T22:07:38.611Z,100267.47
2023-02-11T22:10:05.538Z,100276.97
2023-02-11T22:12:32.039Z,100273.44
2023-02-11T22:14:58.524Z,100277.00
2023-02-11T22:17:25.062Z,100273.50
2023-02-11T22:19:51.618Z,100281.38
2023-02-11T22:22:19.688Z,100278.69
2023-02-11T22:24:46.481Z,100279.38
2023-02-11T22:27:13.740Z,100281.97
2023-02-11T22:29:40.399Z,100285.47
2023-02-11T22:32:07.076Z,100283.69
2023-02-11T22:34:44.126Z,100293.28
2023-02-11T22:37:10.638Z,100283.56
2023-02-11T22:39:37.275Z,100284.66
2023-02-11T22:42:03.862Z,100282.16
2023-02-11T22:44:36.541Z,100286.47
2023-02-11T22:47:03.174Z,100288.28
2023-02-11T22:49:32.431Z,100288.44
2023-02-11T22:51:59.946Z,100287.56
2023-02-11T22:54:27.506Z,100291.75
2023-02-11T22:57:06.851Z,100288.44
2023-02-11T22:59:33.359Z,100292.88
2023-02-11T23:01:59.907Z,100305.84
2023-02-11T23:04:26.436Z,100302.34
2023-02-11T23:06:52.925Z,100315.41
2023-02-11T23:09:20.753Z,100305.03
2023-02-11T23:11:49.406Z,100306.81
2023-02-11T23:14:15.922Z,100309.22
2023-02-11T23:16:42.474Z,100312.34
2023-02-11T23:19:10.281Z,100307.88
2023-02-11T23:21:45.960Z,100316.72
2023-02-11T23:24:14.250Z,100313.94
2023-02-11T23:26:42.001Z,100317.31
2023-02-11T23:29:09.655Z,100318.22
2023-02-11T23:31:39.812Z,100317.22
2023-02-11T23:34:09.693Z,100322.53
2023-02-11T23:36:36.517Z,100320.81
2023-02-11T23:39:04.059Z,100315.56
2023-02-11T23:41:30.604Z,100325.88
2023-02-11T23:43:57.970Z,100321.50
2023-02-11T23:46:26.322Z,100325.88
2023-02-11T23:48:56.556Z,100329.38
2023-02-11T23:51:24.070Z,100327.59
2023-02-11T23:53:51.071Z,100336.34
2023-02-11T23:56:20.585Z,100336.31
2023-02-11T23:58:52.872Z,100346.75
